Time;durP1;ratioP1;P1;durP2;ratioP2;P2;SDS_P1;SDS_P2;PMS_P1;PMS_P2;Temp;Humidity;BMP_temperature;BMP_pressure;BME280_temperature;BME280_humidity;BME280_pressure;Samples;Min_cycle;Max_cycle;Signal;HPM_P1;HPM_P2
2022/06/10 00:02:06;;;;;;;10.97;10.13;;;;;;;15.77;99.31;92092.81;5082859;28;20263;-74
2022/06/10 00:04:33;;;;;;;11.40;10.70;;;;;;;15.76;98.14;92094.69;5084006;28;20205;-74
2022/06/10 00:06:59;;;;;;;11.30;10.60;;;;;;;15.93;97.10;92077.97;5081533;28;20255;-74
2022/06/10 00:09:24;;;;;;;10.30;9.70;;;;;;;16.05;96.52;92081.41;5083081;28;20241;-75
2022/06/10 00:11:49;;;;;;;10.83;10.07;;;;;;;15.88;96.86;92055.25;5083529;28;20220;-75
2022/06/10 00:14:15;;;;;;;11.00;10.40;;;;;;;16.00;98.49;92073.72;5083453;28;20213;-74
2022/06/10 00:16:40;;;;;;;10.97;10.37;;;;;;;15.94;99.81;92074.22;5083245;28;20229;-74
2022/06/10 00:19:06;;;;;;;10.73;10.03;;;;;;;15.76;100.00;92057.06;5081913;28;20172;-74
2022/06/10 00:21:31;;;;;;;11.17;10.57;;;;;;;15.76;100.00;92057.06;5082781;28;20243;-76
2022/06/10 00:23:57;;;;;;;10.90;10.30;;;;;;;15.95;100.00;92086.31;5081984;28;20176;-75
2022/06/10 00:26:22;;;;;;;11.63;10.93;;;;;;;16.00;100.00;92086.09;5082561;28;20258;-75
2022/06/10 00:28:48;;;;;;;10.40;9.87;;;;;;;16.00;99.88;92078.97;5083060;28;20197;-75
2022/06/10 00:31:15;;;;;;;10.67;10.07;;;;;;;15.82;99.35;92038.13;5083880;28;20216;-75
2022/06/10 00:33:41;;;;;;;10.87;10.07;;;;;;;16.15;99.97;92080.25;5082423;28;20229;-75
2022/06/10 00:36:08;;;;;;;10.80;9.80;;;;;;;16.05;99.75;92080.63;5081927;28;20213;-76
2022/06/10 00:38:33;;;;;;;10.03;9.43;;;;;;;15.83;99.95;92041.50;5084800;28;20181;-75
2022/06/10 00:40:59;;;;;;;11.10;10.40;;;;;;;16.08;99.63;92080.00;5083241;28;20285;-75
2022/06/10 00:43:29;;;;;;;10.63;10.03;;;;;;;15.84;100.00;92051.72;5083591;28;20181;-75
2022/06/10 00:46:18;;;;;;;10.73;10.13;;;;;;;16.04;99.38;92068.56;5069766;28;20225;-75
2022/06/10 00:49:13;;;;;;;10.27;9.67;;;;;;;15.70;100.00;92034.69;5070320;28;20194;-75
2022/06/10 00:51:48;;;;;;;10.73;10.13;;;;;;;15.92;100.00;92060.66;5068345;28;20229;-74
2022/06/10 00:54:22;;;;;;;10.47;9.87;;;;;;;15.92;100.00;92074.56;5069263;28;20268;-74
2022/06/10 00:56:58;;;;;;;11.53;10.83;;;;;;;15.89;100.00;92056.78;5066881;28;20275;-75
2022/06/10 00:59:27;;;;;;;10.67;10.07;;;;;;;15.98;100.00;92064.63;5069950;28;20185;-75
2022/06/10 01:01:57;;;;;;;11.53;10.57;;;;;;;15.99;100.00;92066.16;5069253;28;20308;-75
2022/06/10 01:04:24;;;;;;;11.77;10.83;;;;;;;16.01;100.00;92069.22;5070512;28;20186;-75
2022/06/10 01:06:49;;;;;;;11.07;10.47;;;;;;;15.96;100.00;92066.78;5069381;28;20222;-75
2022/06/10 01:09:15;;;;;;;10.57;9.63;;;;;;;15.98;100.00;92056.72;5070314;28;20216;-76
2022/06/10 01:12:02;;;;;;;12.00;11.07;;;;;;;16.09;99.89;92073.66;5071255;28;20221;-76
2022/06/10 01:15:09;;;;;;;12.40;11.40;;;;;;;16.21;98.90;92068.41;5069373;28;20211;-75
2022/06/10 01:18:07;;;;;;;12.27;11.37;;;;;;;16.09;99.01;92068.38;5045881;28;20967;-76
2022/06/10 01:20:44;;;;;;;10.97;10.27;;;;;;;16.09;99.69;92065.75;5051235;28;20541;-75
2022/06/10 01:23:28;;;;;;;11.00;10.10;;;;;;;16.13;100.00;92063.22;5074196;28;20187;-76
2022/06/10 01:26:03;;;;;;;10.87;10.23;;;;;;;16.20;100.00;92058.97;5056910;28;20225;-75
2022/06/10 01:28:46;;;;;;;11.83;11.03;;;;;;;16.31;99.51;92064.59;5071777;28;20208;-75
2022/06/10 01:31:15;;;;;;;13.10;12.13;;;;;;;16.37;99.32;92066.69;5070217;28;20212;-76
2022/06/10 01:34:02;;;;;;;12.23;11.23;;;;;;;16.40;98.11;92063.41;5070937;28;20229;-76
2022/06/10 01:36:49;;;;;;;11.67;10.97;;;;;;;16.24;99.22;92062.50;5069758;28;20309;-75
2022/06/10 01:39:50;;;;;;;11.83;10.90;;;;;;;16.19;99.59;92052.16;5070953;28;20189;-76
2022/06/10 01:42:24;;;;;;;12.27;11.37;;;;;;;16.10;100.00;92062.00;5070123;28;20267;-77
2022/06/10 01:44:58;;;;;;;12.23;11.43;;;;;;;16.09;100.00;92065.75;5070335;28;20209;-75
2022/06/10 01:47:46;;;;;;;11.97;11.20;;;;;;;15.93;100.00;92068.22;5070713;28;20281;-75
2022/06/10 01:50:17;;;;;;;11.80;10.70;;;;;;;15.99;100.00;92072.19;5070977;28;20188;-73
2022/06/10 01:52:52;;;;;;;12.47;11.40;;;;;;;15.83;100.00;92073.09;5068518;28;20316;-75
2022/06/10 01:55:36;;;;;;;12.07;11.27;;;;;;;16.08;100.00;92068.72;5070191;28;20192;-75
2022/06/10 01:58:33;;;;;;;12.40;11.50;;;;;;;15.91;100.00;92069.63;5068903;28;20182;-76
2022/06/10 02:01:07;;;;;;;12.67;11.77;;;;;;;15.79;100.00;92077.47;5061122;28;20248;-76
2022/06/10 02:03:41;;;;;;;12.83;11.43;;;;;;;15.67;100.00;92054.50;5069452;28;20208;-76
2022/06/10 02:06:23;;;;;;;11.90;10.80;;;;;;;15.69;100.00;92062.06;5069621;28;20225;-75
2022/06/10 02:08:54;;;;;;;11.70;11.00;;;;;;;15.78;100.00;92071.44;5070158;28;20193;-77
2022/06/10 02:11:23;;;;;;;10.97;10.37;;;;;;;15.85;100.00;92058.53;5069190;28;20221;-77
2022/06/10 02:14:07;;;;;;;11.40;10.70;;;;;;;15.84;100.00;92054.34;5070176;28;20221;-77
2022/06/10 02:16:37;;;;;;;10.87;10.27;;;;;;;15.82;100.00;92053.91;5070128;28;20248;-78
2022/06/10 02:19:19;;;;;;;11.37;10.50;;;;;;;15.85;100.00;92055.13;5070256;28;20288;-76
2022/06/10 02:22:24;;;;;;;10.53;9.90;;;;;;;15.94;100.00;92061.06;5068353;28;20229;-77
2022/06/10 02:24:55;;;;;;;10.57;10.00;;;;;;;15.98;100.00;92078.53;5063853;28;20690;-77
2022/06/10 02:27:27;;;;;;;10.03;9.53;;;;;;;16.00;100.00;92078.19;5069803;28;20229;-77
2022/06/10 02:30:05;;;;;;;10.10;9.47;;;;;;;15.98;100.00;92083.78;5069416;28;20189;-77
2022/06/10 02:32:32;;;;;;;10.90;10.10;;;;;;;15.98;100.00;92086.44;5069635;28;20227;-77
2022/06/10 02:34:58;;;;;;;10.53;9.83;;;;;;;15.92;100.00;92076.44;5070292;28;20211;-76
2022/06/10 02:37:28;;;;;;;10.13;9.60;;;;;;;15.89;100.00;92080.47;5069521;28;20225;-77
2022/06/10 02:40:08;;;;;;;10.53;9.83;;;;;;;15.96;100.00;92091.25;5070268;28;20252;-77
2022/06/10 02:42:46;;;;;;;10.97;10.37;;;;;;;15.95;100.00;92092.34;5069540;28;20224;-78
2022/06/10 02:45:56;;;;;;;10.07;9.57;;;;;;;15.95;100.00;92092.34;5069905;28;20181;-77
2022/06/10 02:48:24;;;;;;;9.53;9.03;;;;;;;16.13;100.00;92100.09;5047823;28;20206;-77
2022/06/10 02:50:49;;;;;;;10.27;9.67;;;;;;;16.01;100.00;92095.56;5048317;28;20240;-77
2022/06/10 02:53:15;;;;;;;10.20;9.70;;;;;;;15.94;100.00;92100.56;5049867;28;20237;-77
2022/06/10 02:55:40;;;;;;;10.77;10.07;;;;;;;15.81;100.00;92073.41;5053594;28;20229;-78
2022/06/10 03:01:13;;;;;;;10.50;9.70;;;;;;;15.99;100.00;92093.25;5069290;28;20231;-77
2022/06/10 03:03:51;;;;;;;10.67;10.03;;;;;;;15.90;100.00;92097.03;5068567;28;20193;-78
2022/06/10 03:06:38;;;;;;;10.80;9.97;;;;;;;15.96;100.00;92103.66;5069326;28;20225;-77
2022/06/10 03:09:31;;;;;;;10.60;10.00;;;;;;;15.84;100.00;92074.66;5069390;28;20242;-77
2022/06/10 03:12:06;;;;;;;11.00;10.40;;;;;;;15.89;100.00;92090.25;5068079;28;20241;-77
2022/06/10 03:14:47;;;;;;;10.10;9.37;;;;;;;15.89;100.00;92096.28;5069948;28;20208;-77
2022/06/10 03:17:41;;;;;;;10.70;10.03;;;;;;;15.91;100.00;92102.00;5069214;28;20224;-77
2022/06/10 03:20:18;;;;;;;11.17;10.57;;;;;;;15.78;100.00;92099.63;5068203;28;20182;-77
2022/06/10 03:22:50;;;;;;;10.30;9.67;;;;;;;15.87;100.00;92102.97;5068797;28;20210;-77
2022/06/10 03:25:59;;;;;;;11.23;10.40;;;;;;;15.84;100.00;92096.47;5069075;28;20263;-77
2022/06/10 03:28:27;;;;;;;10.97;10.37;;;;;;;15.68;100.00;92081.59;5069272;28;20216;-77
2022/06/10 03:31:03;;;;;;;11.47;10.70;;;;;;;15.90;100.00;92099.69;5069126;28;20217;-77
2022/06/10 03:33:37;;;;;;;10.83;10.20;;;;;;;16.01;100.00;92103.47;5067618;28;20251;-77
2022/06/10 03:36:11;;;;;;;11.57;10.90;;;;;;;15.88;100.00;92101.84;5068458;28;20233;-77
2022/06/10 03:38:43;;;;;;;11.13;10.43;;;;;;;15.93;100.00;92099.03;5069225;28;20178;-77
2022/06/10 03:41:28;;;;;;;11.03;10.40;;;;;;;15.85;100.00;92078.81;5068857;28;20214;-77
2022/06/10 03:43:57;;;;;;;10.77;10.17;;;;;;;16.03;100.00;92098.66;5068780;28;20185;-77
2022/06/10 03:46:25;;;;;;;10.37;9.80;;;;;;;16.26;100.00;92112.22;5064664;28;20213;-77
2022/06/10 03:48:53;;;;;;;11.47;10.83;;;;;;;16.04;100.00;92105.44;5068836;28;20204;-71
2022/06/10 03:51:19;;;;;;;13.33;12.37;;;;;;;15.99;100.00;92113.53;5061506;28;20221;-72
2022/06/10 03:53:46;;;;;;;11.10;10.40;;;;;;;15.98;100.00;92117.28;5062670;28;20247;-72
2022/06/10 03:56:12;;;;;;;12.20;11.40;;;;;;;15.83;100.00;92105.47;5065086;28;20241;-73
2022/06/10 03:58:38;;;;;;;11.63;10.93;;;;;;;15.90;100.00;92120.75;5065521;28;20189;-72
2022/06/10 04:01:04;;;;;;;14.57;13.60;;;;;;;15.96;100.00;92122.06;5064191;28;20233;-73
2022/06/10 04:03:30;;;;;;;13.07;11.70;;;;;;;16.13;100.00;92129.84;5065779;28;20181;-74
2022/06/10 04:05:55;;;;;;;12.37;11.57;;;;;;;16.09;100.00;92121.06;5063962;28;20247;-74
2022/06/10 04:08:21;;;;;;;12.17;11.37;;;;;;;16.19;100.00;92122.53;5067242;28;20188;-73
2022/06/10 04:10:47;;;;;;;11.73;10.90;;;;;;;16.03;100.00;92112.56;5064880;28;20228;-72
2022/06/10 04:13:13;;;;;;;12.40;11.57;;;;;;;15.97;100.00;92121.75;5065663;28;20206;-80
2022/06/10 04:15:38;;;;;;;11.53;10.70;;;;;;;15.91;100.00;92107.25;5065272;28;20359;-76
2022/06/10 04:18:04;;;;;;;11.77;10.97;;;;;;;16.22;100.00;92119.97;5063100;28;20170;-76
2022/06/10 04:20:34;;;;;;;12.40;11.43;;;;;;;16.01;100.00;92124.53;5069380;28;20215;-80
2022/06/10 04:23:01;;;;;;;11.43;10.73;;;;;;;16.26;100.00;92126.16;5084995;28;20196;-81
2022/06/10 04:25:26;;;;;;;12.60;11.60;;;;;;;16.34;100.00;92124.53;5070225;28;20189;-75
2022/06/10 04:27:52;;;;;;;13.20;12.30;;;;;;;16.30;100.00;92100.69;5070297;28;20181;-75
2022/06/10 04:30:45;;;;;;;11.13;10.27;;;;;;;16.39;100.00;92119.81;5071274;28;20185;-75
2022/06/10 04:33:11;;;;;;;12.83;12.03;;;;;;;16.44;100.00;92124.09;5069645;28;20221;-74
2022/06/10 04:35:39;;;;;;;11.63;10.93;;;;;;;16.40;100.00;92124.00;5070437;28;20240;-82
2022/06/10 04:38:06;;;;;;;10.67;10.07;;;;;;;16.53;100.00;92130.88;5070255;28;20235;-77
2022/06/10 04:40:34;;;;;;;11.20;10.47;;;;;;;16.63;100.00;92127.81;5068001;28;20859;-79
2022/06/10 04:43:00;;;;;;;11.27;10.57;;;;;;;16.61;100.00;92093.13;5066888;28;20181;-75
2022/06/10 04:45:30;;;;;;;11.93;10.97;;;;;;;16.78;100.00;92127.19;5067832;28;20185;-74
2022/06/10 04:47:56;;;;;;;10.70;10.10;;;;;;;16.79;100.00;92133.22;5067715;28;20197;-74
2022/06/10 04:50:24;;;;;;;10.90;10.20;;;;;;;16.84;100.00;92133.78;5068702;28;20205;-74
2022/06/10 04:52:51;;;;;;;9.97;9.40;;;;;;;16.74;100.00;92117.63;5068010;28;20220;-73
2022/06/10 04:55:17;;;;;;;10.60;10.00;;;;;;;16.88;100.00;92134.69;5069083;28;20177;-74
2022/06/10 04:57:42;;;;;;;10.13;9.53;;;;;;;16.74;100.00;92128.94;5069583;28;20185;-74
2022/06/10 05:00:13;;;;;;;10.93;10.33;;;;;;;17.03;100.00;92141.94;5068722;28;20201;-74
2022/06/10 05:02:39;;;;;;;12.80;11.80;;;;;;;17.20;100.00;92151.50;5065442;28;20299;-74
2022/06/10 05:05:07;;;;;;;11.10;10.47;;;;;;;17.47;99.64;92150.88;5067726;28;20188;-74
2022/06/10 05:07:32;;;;;;;11.40;10.57;;;;;;;17.50;98.55;92156.28;5066953;28;20221;-73
2022/06/10 05:09:58;;;;;;;11.47;10.77;;;;;;;17.50;99.94;92150.22;5065198;28;20173;-75
2022/06/10 05:12:23;;;;;;;12.07;11.37;;;;;;;17.55;99.46;92127.03;5068930;28;20222;-74
2022/06/10 05:14:49;;;;;;;12.47;11.53;;;;;;;17.52;98.89;92132.97;5064392;28;20229;-73
2022/06/10 05:17:14;;;;;;;11.33;10.53;;;;;;;17.78;96.79;92150.28;5065914;28;20217;-73
2022/06/10 05:19:39;;;;;;;11.07;10.37;;;;;;;17.52;97.09;92111.84;5066686;28;20189;-73
2022/06/10 05:22:05;;;;;;;10.97;10.27;;;;;;;17.95;96.79;92156.09;5064430;28;20225;-74
2022/06/10 05:24:30;;;;;;;11.07;10.37;;;;;;;17.93;95.37;92144.31;5067408;28;20189;-74
2022/06/10 05:26:56;;;;;;;10.67;10.07;;;;;;;17.85;95.58;92147.88;5067910;28;20221;-75
2022/06/10 05:29:21;;;;;;;11.30;10.60;;;;;;;17.86;96.47;92168.66;5069969;28;20203;-74
2022/06/10 05:31:46;;;;;;;10.97;10.27;;;;;;;17.88;95.98;92160.41;5068611;28;20249;-74
2022/06/10 05:36:56;;;;;;;12.27;11.13;;;;;;;18.01;97.40;92169.84;5067794;28;20228;-74
2022/06/10 05:39:21;;;;;;;12.13;10.97;;;;;;;18.23;96.94;92174.59;5070431;28;20193;-75
2022/06/10 05:42:05;;;;;;;11.70;11.00;;;;;;;18.28;94.11;92166.44;5068530;28;20284;-74
2022/06/10 05:44:42;;;;;;;12.23;11.43;;;;;;;18.22;95.70;92159.88;5069228;28;20257;-76
2022/06/10 05:47:11;;;;;;;11.10;10.47;;;;;;;18.41;95.21;92173.25;5065672;28;20212;-75
2022/06/10 05:49:41;;;;;;;11.40;10.73;;;;;;;18.48;93.98;92170.81;5068693;28;20181;-75
2022/06/10 05:52:10;;;;;;;11.20;10.60;;;;;;;18.39;95.16;92170.97;5067894;28;20229;-75
2022/06/10 05:54:40;;;;;;;11.53;10.83;;;;;;;18.01;98.24;92127.59;5068906;28;20209;-75
2022/06/10 05:57:06;;;;;;;10.63;9.80;;;;;;;18.25;97.97;92175.81;5069310;28;20358;-73
2022/06/10 05:59:33;;;;;;;9.27;8.80;;;;;;;18.16;95.73;92163.84;5069855;28;20189;-74
2022/06/10 06:02:00;;;;;;;10.87;10.17;;;;;;;17.99;92.35;92156.19;5063800;28;20215;-72
2022/06/10 06:04:26;;;;;;;10.37;9.77;;;;;;;18.04;93.40;92169.19;5068074;28;20181;-73
2022/06/10 06:06:51;;;;;;;14.63;12.60;;;;;;;18.02;95.87;92171.38;5066472;28;20228;-79
2022/06/10 06:09:18;;;;;;;13.07;12.10;;;;;;;17.98;97.42;92160.69;5067080;28;20194;-73
2022/06/10 06:11:43;;;;;;;12.67;11.77;;;;;;;17.82;98.20;92156.44;5067521;28;20252;-73
2022/06/10 06:14:09;;;;;;;12.77;11.87;;;;;;;17.54;98.32;92154.50;5069591;28;20271;-73
2022/06/10 06:16:35;;;;;;;12.80;12.00;;;;;;;17.44;99.45;92157.59;5068222;28;20221;-73
2022/06/10 06:19:00;;;;;;;12.83;11.93;;;;;;;17.51;99.14;92163.09;5067769;28;20178;-73
2022/06/10 06:21:26;;;;;;;12.77;11.97;;;;;;;17.34;100.00;92173.84;5058525;28;20225;-76
2022/06/10 06:23:51;;;;;;;12.70;11.83;;;;;;;17.37;100.00;92182.94;5046640;28;20209;-74
2022/06/10 06:26:18;;;;;;;13.00;12.10;;;;;;;17.19;100.00;92169.22;5056961;28;20229;-78
2022/06/10 06:28:44;;;;;;;13.53;12.53;;;;;;;17.37;100.00;92199.56;5068296;28;20197;-72
2022/06/10 06:31:10;;;;;;;13.27;12.20;;;;;;;17.28;100.00;92175.16;5066884;28;20232;-74
2022/06/10 06:33:36;;;;;;;14.30;13.27;;;;;;;17.30;100.00;92194.06;5068541;28;20241;-72
2022/06/10 06:36:01;;;;;;;15.10;13.70;;;;;;;17.37;100.00;92193.50;5066086;28;20266;-75
2022/06/10 06:38:28;;;;;;;14.73;13.47;;;;;;;17.38;100.00;92187.94;5067569;28;20711;-75
2022/06/10 06:40:54;;;;;;;14.57;13.47;;;;;;;17.37;100.00;92198.78;5067604;28;20236;-75
2022/06/10 06:43:19;;;;;;;14.03;12.93;;;;;;;17.27;100.00;92188.69;5068120;28;20197;-76
2022/06/10 06:45:45;;;;;;;14.23;13.13;;;;;;;17.12;100.00;92168.97;5067610;28;20240;-75
2022/06/10 06:48:11;;;;;;;14.70;13.50;;;;;;;17.33;100.00;92188.13;5084683;28;20181;-75
2022/06/10 06:50:45;;;;;;;14.40;13.40;;;;;;;17.63;99.29;92207.94;5067663;28;20243;-75
2022/06/10 06:53:10;;;;;;;13.57;12.63;;;;;;;17.47;100.00;92204.44;5068233;28;20217;-75
2022/06/10 06:55:38;;;;;;;15.27;13.90;;;;;;;17.42;100.00;92186.16;5068262;28;20243;-76
2022/06/10 06:58:04;;;;;;;14.17;13.17;;;;;;;17.72;100.00;92199.16;5069257;28;20212;-75
2022/06/10 07:00:30;;;;;;;13.97;12.77;;;;;;;17.86;98.59;92200.34;5067648;28;20223;-76
2022/06/10 07:02:55;;;;;;;14.77;13.53;;;;;;;17.70;96.88;92185.53;5068183;28;20202;-75
2022/06/10 07:05:20;;;;;;;15.17;14.07;;;;;;;17.80;97.09;92206.19;5068132;28;20623;-76
2022/06/10 07:07:46;;;;;;;15.07;13.63;;;;;;;17.67;97.38;92186.16;5067765;28;20216;-76
2022/06/10 07:10:14;;;;;;;15.50;14.40;;;;;;;17.61;98.37;92204.09;5067173;28;20177;-75
2022/06/10 07:12:39;;;;;;;14.63;13.33;;;;;;;17.47;99.50;92180.69;5068368;28;20646;-76
2022/06/10 07:15:05;;;;;;;14.90;13.77;;;;;;;17.57;100.00;92190.78;5067990;28;20189;-76
2022/06/10 07:17:32;;;;;;;15.87;14.47;;;;;;;17.59;99.91;92185.97;5066028;28;20306;-75
2022/06/10 07:19:59;;;;;;;14.70;13.40;;;;;;;17.85;99.48;92208.59;5066437;28;20189;-74
2022/06/10 07:22:26;;;;;;;15.30;13.90;;;;;;;17.88;97.81;92197.38;5066830;28;20252;-73
2022/06/10 07:24:53;;;;;;;14.47;13.33;;;;;;;17.88;96.73;92187.59;5068561;28;20201;-73
2022/06/10 07:27:18;;;;;;;15.93;14.73;;;;;;;17.93;97.25;92199.78;5066628;28;20224;-72
2022/06/10 07:29:44;;;;;;;14.60;13.30;;;;;;;18.02;97.40;92206.50;5067946;28;20177;-73
2022/06/10 07:32:09;;;;;;;14.73;13.53;;;;;;;18.12;96.16;92207.88;5067647;28;20225;-73
2022/06/10 07:34:34;;;;;;;14.47;13.37;;;;;;;17.99;96.22;92190.53;5066545;28;20233;-73
2022/06/10 07:37:00;;;;;;;13.77;12.57;;;;;;;18.30;95.20;92214.47;5067258;28;20247;-73
2022/06/10 07:39:25;;;;;;;14.70;13.67;;;;;;;18.24;94.99;92207.88;5068231;28;20228;-72
2022/06/10 07:41:56;;;;;;;14.10;13.00;;;;;;;18.39;95.42;92212.47;5065905;28;20229;-72
2022/06/10 07:44:23;;;;;;;13.77;12.67;;;;;;;18.40;95.35;92219.28;5067191;28;20189;-74
2022/06/10 07:46:55;;;;;;;14.43;13.23;;;;;;;18.36;94.15;92213.13;5066985;28;20270;-72
2022/06/10 07:49:20;;;;;;;13.23;12.10;;;;;;;18.17;95.04;92199.72;5067795;28;20197;-71
2022/06/10 07:51:47;;;;;;;13.27;12.33;;;;;;;18.31;94.72;92200.91;5066331;28;20248;-72
2022/06/10 07:54:12;;;;;;;13.70;12.57;;;;;;;18.66;93.62;92222.31;5063227;28;20279;-72
2022/06/10 07:56:39;;;;;;;14.07;13.10;;;;;;;18.63;93.01;92202.56;5071704;28;20217;-75
2022/06/10 07:59:05;;;;;;;13.63;12.43;;;;;;;18.79;91.98;92215.84;5068580;28;20209;-75
2022/06/10 08:01:30;;;;;;;13.70;12.70;;;;;;;18.75;91.63;92210.47;5071191;28;20225;-76
2022/06/10 08:03:57;;;;;;;14.30;13.07;;;;;;;19.02;91.33;92216.81;5069916;28;20222;-75
2022/06/10 08:06:24;;;;;;;13.07;12.17;;;;;;;19.09;90.66;92209.06;5071405;28;20240;-76
2022/06/10 08:08:50;;;;;;;12.63;11.67;;;;;;;19.24;89.08;92210.22;5070207;28;20360;-74
2022/06/10 08:11:16;;;;;;;11.77;10.97;;;;;;;19.73;87.67;92232.59;5070568;28;20233;-75
2022/06/10 08:13:41;;;;;;;13.30;12.20;;;;;;;19.90;85.28;92233.03;5071664;28;20210;-74
2022/06/10 08:16:07;;;;;;;13.30;12.10;;;;;;;20.17;85.20;92237.44;5069410;28;20258;-74
2022/06/10 08:18:34;;;;;;;13.07;12.10;;;;;;;20.46;83.29;92228.22;5085729;28;20186;-73
2022/06/10 08:23:45;;;;;;;10.50;9.97;;;;;;;21.29;73.66;92244.25;5071229;28;20202;-75
2022/06/10 08:26:11;;;;;;;10.23;9.63;;;;;;;21.81;73.85;92248.94;5070014;28;20258;-74
2022/06/10 08:28:39;;;;;;;9.80;9.13;;;;;;;21.72;70.35;92240.44;5070826;28;20222;-78
2022/06/10 08:31:04;;;;;;;10.05;9.45;;;;;;;22.33;65.97;92253.53;5069339;28;20211;-75
2022/06/10 08:33:30;;;;;;;10.32;9.63;;;;;;;22.00;66.64;92252.31;5070567;28;20246;-75
2022/06/10 08:35:56;;;;;;;11.88;11.18;;;;;;;22.17;65.39;92241.16;5070255;28;20226;-75
2022/06/10 08:38:21;;;;;;;10.93;10.25;;;;;;;20.54;69.36;92246.59;5069632;28;20189;-76
2022/06/10 08:41:10;;;;;;;10.52;9.85;;;;;;;21.10;68.56;92259.44;5071443;28;20244;-76
2022/06/10 08:43:44;;;;;;;9.98;9.38;;;;;;;20.80;74.90;92255.78;5070217;28;20198;-76
2022/06/10 08:46:34;;;;;;;10.48;9.88;;;;;;;21.33;69.48;92254.94;5071312;28;20238;-77
2022/06/10 08:49:09;;;;;;;11.23;10.53;;;;;;;21.10;71.74;92262.88;5071224;28;20190;-77
2022/06/10 08:51:40;;;;;;;10.95;10.20;;;;;;;20.90;71.45;92252.59;5070057;28;20219;-77
2022/06/10 08:54:16;;;;;;;9.35;8.90;;;;;;;21.03;69.50;92261.97;5070053;28;20215;-76
2022/06/10 08:56:49;;;;;;;10.67;10.07;;;;;;;20.51;69.75;92257.88;5068220;28;20229;-75
2022/06/10 08:59:22;;;;;;;9.80;9.30;;;;;;;20.21;71.11;92264.81;5069626;28;20223;-76
2022/06/10 09:02:14;;;;;;;11.50;10.63;;;;;;;19.86;75.56;92261.31;5069984;28;20235;-75
2022/06/10 09:04:57;;;;;;;12.30;11.30;;;;;;;19.23;81.15;92267.66;5070251;28;20218;-76
2022/06/10 09:07:32;;;;;;;15.67;12.67;;;;;;;19.27;81.87;92257.19;5069955;28;20227;-76
2022/06/10 09:09:59;;;;;;;12.40;11.40;;;;;;;19.07;83.73;92272.16;5070667;28;20201;-76
2022/06/10 09:12:34;;;;;;;12.90;11.63;;;;;;;19.09;84.05;92268.06;5069634;28;20228;-77
2022/06/10 09:15:03;;;;;;;12.47;11.40;;;;;;;18.86;86.63;92274.25;5069657;28;20224;-75
2022/06/10 09:17:43;;;;;;;13.33;12.13;;;;;;;18.92;89.01;92278.19;5067974;28;20262;-74
2022/06/10 09:20:20;;;;;;;12.60;11.60;;;;;;;17.97;94.03;92253.47;5069862;28;20228;-75
2022/06/10 09:22:54;;;;;;;12.43;11.53;;;;;;;18.53;92.14;92260.47;5070407;28;20236;-76
2022/06/10 09:25:31;;;;;;;11.53;10.73;;;;;;;19.00;90.30;92267.44;5069355;28;20192;-75
2022/06/10 09:28:00;;;;;;;12.40;11.30;;;;;;;19.44;88.20;92273.50;5068396;28;20187;-75
2022/06/10 09:30:51;;;;;;;12.53;11.63;;;;;;;19.85;86.37;92278.31;5068795;28;20187;-75
2022/06/10 09:33:38;;;;;;;16.83;15.30;;;;;;;20.16;84.50;92262.41;5068342;28;20232;-75
2022/06/10 09:36:26;;;;;;;13.43;12.43;;;;;;;19.80;85.43;92265.34;5069378;28;20315;-75
2022/06/10 09:38:57;;;;;;;14.43;13.23;;;;;;;20.14;86.74;92280.53;5069345;28;20187;-74
2022/06/10 09:41:41;;;;;;;13.83;12.40;;;;;;;19.89;87.25;92276.50;5069082;28;20219;-74
2022/06/10 09:44:13;;;;;;;12.63;11.73;;;;;;;19.94;88.33;92272.84;5069170;28;20206;-73
2022/06/10 09:47:09;;;;;;;14.87;13.57;;;;;;;19.83;88.61;92269.94;5069450;28;20231;-75
2022/06/10 09:49:51;;;;;;;12.63;11.63;;;;;;;19.40;88.85;92272.66;5070018;28;20263;-75
2022/06/10 09:52:42;;;;;;;12.47;11.67;;;;;;;19.69;88.84;92274.91;5069650;28;20314;-73
2022/06/10 09:55:22;;;;;;;11.20;10.50;;;;;;;19.98;85.43;92269.19;5069804;28;20267;-75
2022/06/10 09:58:06;;;;;;;11.53;10.63;;;;;;;20.42;84.80;92281.16;5069634;28;20231;-74
2022/06/10 10:00:38;;;;;;;13.10;12.10;;;;;;;20.69;83.97;92285.53;5068190;28;20251;-74
2022/06/10 10:03:09;;;;;;;11.55;10.65;;;;;;;20.30;85.21;92312.31;5069403;28;20191;-75
2022/06/10 10:05:59;;;;;;;12.90;11.70;;;;;;;19.70;87.82;92307.47;5069065;28;20236;-75
2022/06/10 10:08:33;;;;;;;12.10;11.20;;;;;;;19.56;85.88;92299.16;5068294;28;20262;-74
2022/06/10 10:11:07;;;;;;;11.70;10.90;;;;;;;20.36;84.66;92301.13;5067813;28;20246;-76
2022/06/10 10:13:51;;;;;;;12.70;11.80;;;;;;;21.08;77.94;92309.47;5067520;28;20226;-75
2022/06/10 10:16:25;;;;;;;11.37;10.57;;;;;;;20.94;79.52;92309.16;5069170;28;20310;-75
2022/06/10 10:19:15;;;;;;;9.57;8.88;;;;;;;20.70;77.44;92316.25;5067899;28;20199;-75
2022/06/10 10:22:11;;;;;;;9.27;8.67;;;;;;;19.67;81.01;92321.41;5068763;28;20640;-75
2022/06/10 10:24:40;;;;;;;8.77;8.37;;;;;;;19.19;82.10;92309.91;5068674;28;20213;-77
2022/06/10 10:27:31;;;;;;;8.60;8.10;;;;;;;19.34;81.97;92294.44;5067649;28;20218;-76
2022/06/10 10:30:13;;;;;;;9.60;9.10;;;;;;;19.41;82.64;92308.63;5067832;28;20273;-76
2022/06/10 10:32:43;;;;;;;10.73;10.00;;;;;;;19.41;83.99;92311.25;5067950;28;20237;-76
2022/06/10 10:35:23;;;;;;;9.80;9.30;;;;;;;19.50;84.17;92317.19;5069019;28;20180;-76
2022/06/10 10:38:01;;;;;;;10.80;9.93;;;;;;;19.37;85.08;92312.28;5068269;28;20226;-76
2022/06/10 10:40:39;;;;;;;9.90;9.30;;;;;;;18.25;86.26;92302.66;5066592;28;20216;-76
2022/06/10 10:43:30;;;;;;;10.13;9.63;;;;;;;18.62;87.99;92317.41;5060861;28;20214;-75
2022/06/10 10:46:00;;;;;;;11.13;10.43;;;;;;;18.59;86.04;92312.00;5058311;28;20230;-75
2022/06/10 10:48:43;;;;;;;12.23;11.20;;;;;;;18.51;88.95;92310.25;5065118;28;20225;-75
2022/06/10 10:51:11;;;;;;;11.37;10.67;;;;;;;18.20;90.28;92307.41;5057487;28;20961;-76
2022/06/10 10:53:40;;;;;;;12.67;11.20;;;;;;;18.19;92.78;92313.78;5068177;28;20265;-77
2022/06/10 10:56:08;;;;;;;11.17;10.47;;;;;;;18.30;91.93;92299.81;5068038;28;20233;-76
2022/06/10 10:58:38;;;;;;;11.23;10.63;;;;;;;18.30;92.49;92306.97;5068986;28;20196;-75
2022/06/10 11:01:43;;;;;;;12.00;11.07;;;;;;;18.36;90.92;92308.28;5066857;28;20317;-76
2022/06/10 11:03:56;;;;;;;12.23;11.23;;;;;;;18.41;92.91;92305.44;5068245;28;20174;-76
2022/06/10 11:06:30;;;;;;;11.73;11.03;;;;;;;18.65;90.40;92310.66;5069011;28;20233;-76
2022/06/10 11:08:59;;;;;;;12.30;11.47;;;;;;;18.50;91.10;92306.84;5068741;28;20247;-75
2022/06/10 11:11:32;;;;;;;12.37;11.47;;;;;;;18.66;90.77;92307.69;5064863;28;20225;-74
2022/06/10 11:14:26;;;;;;;12.73;11.93;;;;;;;18.76;89.20;92306.44;5060704;28;20225;-75
2022/06/10 11:17:11;;;;;;;12.43;11.60;;;;;;;18.58;89.81;92302.53;5046678;28;20219;-74
2022/06/10 11:19:37;;;;;;;12.20;11.43;;;;;;;18.77;89.54;92308.00;5047777;28;20187;-76
2022/06/10 11:22:02;;;;;;;12.60;11.40;;;;;;;19.12;88.26;92301.03;5064043;28;20215;-76
2022/06/10 11:24:50;;;;;;;11.87;11.07;;;;;;;19.48;85.00;92308.03;5069608;28;20992;-76
2022/06/10 11:27:29;;;;;;;11.83;10.93;;;;;;;20.00;83.16;92304.03;5066768;28;20222;-75
2022/06/10 11:30:01;;;;;;;11.07;10.40;;;;;;;20.10;82.90;92305.41;5068505;28;20214;-75
2022/06/10 11:32:33;;;;;;;11.77;11.00;;;;;;;19.75;84.48;92304.56;5068516;28;21547;-75
2022/06/10 11:35:02;;;;;;;11.47;10.77;;;;;;;19.91;81.99;92307.97;5067660;28;20207;-73
2022/06/10 11:37:40;;;;;;;11.77;11.07;;;;;;;19.59;83.44;92307.22;5068554;28;20249;-72
2022/06/10 11:40:21;;;;;;;11.67;10.87;;;;;;;19.83;81.45;92304.38;5067692;28;20195;-72
2022/06/10 11:43:15;;;;;;;11.47;10.67;;;;;;;20.13;79.00;92310.00;5068177;28;20210;-75
2022/06/10 11:46:20;;;;;;;13.50;12.30;;;;;;;20.27;79.59;92303.19;5067222;28;20243;-74
2022/06/10 11:49:12;;;;;;;11.07;10.37;;;;;;;19.52;80.19;92298.31;5061405;28;20200;-76
2022/06/10 11:51:38;;;;;;;11.40;10.70;;;;;;;20.17;81.05;92300.31;5064635;28;20242;-76